Time;durP1;ratioP1;P1;durP2;ratioP2;P2;SDS_P1;SDS_P2;PMS_P1;PMS_P2;Temp;Humidity;BMP_temperature;BMP_pressure;BME280_temperature;BME280_humidity;BME280_pressure;Samples;Min_cycle;Max_cycle;Signal;HPM_P1;HPM_P2
2023/05/24 00:02:25;;;;;;;8.77;6.82;;;;;;;14.34;96.89;101455.66;5044049;28;20028;-75
2023/05/24 00:04:51;;;;;;;8.95;7.07;;;;;;;14.22;96.86;101437.53;5060607;28;20043;-75
2023/05/24 00:07:20;;;;;;;10.30;7.07;;;;;;;14.40;97.25;101472.09;5061098;28;20051;-75
2023/05/24 00:09:45;;;;;;;8.60;6.60;;;;;;;14.38;97.23;101464.22;5059740;28;20074;-75
2023/05/24 00:12:11;;;;;;;9.68;6.60;;;;;;;14.37;97.26;101465.25;5058079;28;20032;-75
2023/05/24 00:14:36;;;;;;;7.63;6.82;;;;;;;14.34;97.09;101468.38;5059987;28;20033;-75
2023/05/24 00:17:02;;;;;;;8.75;7.22;;;;;;;14.29;97.03;101460.84;5059960;28;20039;-75
2023/05/24 00:19:28;;;;;;;8.02;7.22;;;;;;;14.29;97.18;101466.28;5078261;28;20064;-75
2023/05/24 00:21:54;;;;;;;8.35;7.32;;;;;;;14.26;97.25;101472.09;5042927;28;20040;-75
2023/05/24 00:24:19;;;;;;;9.68;7.50;;;;;;;14.08;97.39;101456.47;5044291;28;20044;-75
2023/05/24 00:26:45;;;;;;;9.20;7.13;;;;;;;14.04;97.30;101463.34;5060171;28;20025;-75
2023/05/24 00:29:11;;;;;;;8.20;7.28;;;;;;;14.02;97.39;101472.72;5058948;28;20047;-75
2023/05/24 00:31:36;;;;;;;8.80;7.40;;;;;;;13.98;97.55;101466.88;5076335;28;20043;-75
2023/05/24 00:34:01;;;;;;;9.10;7.53;;;;;;;13.91;97.03;101451.66;5063038;28;20025;-76
2023/05/24 00:36:27;;;;;;;9.10;7.38;;;;;;;13.67;97.00;101432.25;5066912;28;20063;-75
2023/05/24 00:38:52;;;;;;;8.70;7.80;;;;;;;13.93;97.24;101487.47;5082079;28;20033;-75
2023/05/24 00:41:18;;;;;;;10.20;7.60;;;;;;;13.93;97.71;101499.09;5063681;28;20522;-74
2023/05/24 00:43:43;;;;;;;9.00;8.02;;;;;;;13.93;97.57;101499.09;5065901;28;20104;-74
2023/05/24 00:46:17;;;;;;;9.35;7.35;;;;;;;13.91;97.66;101501.19;5065197;28;20131;-74
2023/05/24 00:48:44;;;;;;;8.77;7.70;;;;;;;13.84;97.38;101511.16;5064352;28;20096;-75
2023/05/24 00:51:11;;;;;;;9.35;8.35;;;;;;;13.78;97.85;101515.53;5066472;28;20032;-75
2023/05/24 00:53:37;;;;;;;9.70;7.88;;;;;;;13.78;97.44;101515.53;5082225;28;20150;-75
2023/05/24 00:56:03;;;;;;;9.10;7.95;;;;;;;13.65;97.58;101488.44;5046782;28;20039;-75
2023/05/24 00:58:30;;;;;;;10.65;8.70;;;;;;;13.82;98.26;101514.06;5064086;28;20032;-75
2023/05/24 01:00:59;;;;;;;9.88;8.18;;;;;;;13.75;97.93;101497.00;5081690;28;20124;-74
2023/05/24 01:03:28;;;;;;;8.50;7.55;;;;;;;13.81;97.99;101508.88;5064743;28;20053;-75
2023/05/24 01:05:56;;;;;;;9.70;8.70;;;;;;;13.78;97.99;101510.09;5062879;28;20557;-75
2023/05/24 01:08:47;;;;;;;9.75;8.75;;;;;;;13.68;98.29;101493.44;5062658;28;20025;-74
2023/05/24 01:11:15;;;;;;;10.80;9.15;;;;;;;13.80;98.00;101518.00;5079193;28;20025;-75
2023/05/24 01:13:51;;;;;;;8.63;7.82;;;;;;;13.77;98.09;101511.13;5062498;28;20029;-75
2023/05/24 01:16:26;;;;;;;9.85;8.50;;;;;;;13.77;98.29;101508.41;5063233;28;20449;-74
2023/05/24 01:18:56;;;;;;;9.65;8.27;;;;;;;13.67;98.31;101486.34;5063690;28;20032;-74
2023/05/24 01:21:27;;;;;;;9.30;8.40;;;;;;;13.82;98.14;101508.66;5063323;28;20509;-74
2023/05/24 01:24:31;;;;;;;8.25;7.45;;;;;;;13.76;98.13;101503.22;5061106;28;20051;-74
2023/05/24 01:27:26;;;;;;;8.32;7.53;;;;;;;13.72;97.85;101510.09;5085533;28;20032;-75
2023/05/24 01:29:54;;;;;;;9.45;8.30;;;;;;;13.66;97.90;101513.59;5060790;28;20126;-75
2023/05/24 01:32:20;;;;;;;9.60;8.60;;;;;;;13.63;98.15;101514.81;5064434;28;20036;-73
2023/05/24 01:34:45;;;;;;;8.60;7.80;;;;;;;13.58;98.23;101512.75;5049564;28;20043;-74
2023/05/24 01:37:12;;;;;;;10.65;8.38;;;;;;;13.47;97.89;101493.53;5064063;28;20047;-75
2023/05/24 01:39:38;;;;;;;10.30;9.20;;;;;;;13.40;98.04;101488.94;5046760;28;20072;-74
2023/05/24 01:42:10;;;;;;;10.25;9.07;;;;;;;13.47;97.88;101491.66;5060570;28;20032;-74
2023/05/24 01:44:46;;;;;;;10.63;9.50;;;;;;;13.37;97.99;101477.69;5062881;28;20467;-75
2023/05/24 01:47:27;;;;;;;10.77;8.90;;;;;;;13.36;98.03;101494.94;5061801;28;20052;-75
2023/05/24 01:50:09;;;;;;;10.02;9.02;;;;;;;13.25;97.71;101496.38;5080483;28;20032;-75
2023/05/24 01:52:35;;;;;;;11.75;9.75;;;;;;;13.17;97.60;101500.00;5048349;28;20036;-74
2023/05/24 01:55:03;;;;;;;18.17;10.77;;;;;;;13.19;98.11;101494.41;5058454;28;20088;-74
2023/05/24 01:57:31;;;;;;;10.63;9.52;;;;;;;13.27;98.24;101504.25;5060489;28;20387;-74
2023/05/24 01:59:59;;;;;;;11.13;10.02;;;;;;;13.31;98.19;101506.38;5042871;28;20045;-74
2023/05/24 02:02:25;;;;;;;13.75;10.40;;;;;;;13.33;98.08;101495.34;5043279;28;20040;-74
2023/05/24 02:04:50;;;;;;;9.77;8.82;;;;;;;13.30;98.22;101498.44;5059927;28;20028;-75
2023/05/24 02:07:16;;;;;;;8.38;7.57;;;;;;;13.26;98.37;101492.63;5059422;28;20448;-75
2023/05/24 02:09:41;;;;;;;10.45;9.32;;;;;;;13.22;98.42;101495.91;5042579;28;20063;-75
2023/05/24 02:12:08;;;;;;;9.65;8.02;;;;;;;13.11;98.24;101491.88;5057663;28;20075;-75
2023/05/24 02:14:33;;;;;;;9.73;8.82;;;;;;;13.13;97.93;101496.03;5057953;28;20388;-74
2023/05/24 02:16:59;;;;;;;8.38;7.57;;;;;;;13.07;98.00;101487.91;5042862;28;20048;-74
2023/05/24 02:19:25;;;;;;;10.05;8.98;;;;;;;12.99;97.96;101488.06;5029472;28;20031;-73
2023/05/24 02:21:52;;;;;;;8.43;7.60;;;;;;;12.94;98.04;101494.88;5063453;28;20037;-74
2023/05/24 02:24:17;;;;;;;8.25;7.47;;;;;;;12.85;98.00;101493.38;5045309;28;20048;-74
2023/05/24 02:26:43;;;;;;;8.73;7.45;;;;;;;12.80;98.24;101503.09;5062469;28;20033;-74
2023/05/24 02:29:09;;;;;;;9.80;7.75;;;;;;;12.69;98.10;101491.81;5061600;28;20031;-74
2023/05/24 02:31:34;;;;;;;8.13;7.32;;;;;;;12.55;97.74;101476.56;5056566;28;20032;-74
2023/05/24 02:34:00;;;;;;;7.93;7.22;;;;;;;12.63;97.78;101491.75;5042209;28;20067;-74
2023/05/24 02:36:25;;;;;;;8.25;6.72;;;;;;;12.20;97.55;101432.44;5057879;28;20112;-74
2023/05/24 02:38:51;;;;;;;7.78;7.07;;;;;;;12.56;97.59;101490.88;5058142;28;20048;-74
2023/05/24 02:41:17;;;;;;;7.88;7.05;;;;;;;12.54;97.52;101496.44;5041709;28;20534;-74
2023/05/24 02:43:46;;;;;;;9.80;7.10;;;;;;;12.59;97.10;101507.50;5060287;28;20166;-74
2023/05/24 02:46:12;;;;;;;48.20;13.15;;;;;;;12.61;96.79;101508.13;5041990;28;20129;-74
2023/05/24 02:48:38;;;;;;;15.20;11.45;;;;;;;12.66;96.96;101510.28;5059425;28;20057;-74
2023/05/24 02:51:03;;;;;;;19.05;11.45;;;;;;;12.59;96.89;101499.41;5057504;28;20032;-74
2023/05/24 02:53:30;;;;;;;63.90;10.93;;;;;;;12.56;97.26;101517.88;5058623;28;20033;-74
2023/05/24 02:55:55;;;;;;;20.25;10.00;;;;;;;12.51;97.67;101528.41;5058689;28;20047;-74
2023/05/24 02:58:22;;;;;;;27.67;10.32;;;;;;;12.40;97.63;101506.31;5057638;28;20036;-74
2023/05/24 03:00:48;;;;;;;11.45;9.32;;;;;;;12.48;97.82;101516.13;5058303;28;20053;-74
2023/05/24 03:03:13;;;;;;;34.85;8.88;;;;;;;12.63;97.53;101533.09;5059062;28;20091;-74
2023/05/24 03:05:39;;;;;;;51.20;7.95;;;;;;;12.58;98.30;101532.84;5061981;28;20544;-74
2023/05/24 03:08:05;;;;;;;40.90;9.13;;;;;;;12.43;99.35;101532.91;5062635;28;20387;-74
2023/05/24 03:10:31;;;;;;;32.10;8.40;;;;;;;12.49;98.66;101542.13;5058428;28;20037;-73
2023/05/24 03:12:56;;;;;;;13.50;8.48;;;;;;;12.70;97.82;101533.97;5046045;28;20083;-74
2023/05/24 03:15:22;;;;;;;8.18;7.38;;;;;;;12.96;97.01;101529.81;5058725;28;20446;-73
2023/05/24 03:17:48;;;;;;;12.50;7.43;;;;;;;13.28;95.61;101535.69;5023649;28;20041;-74
2023/05/24 03:20:14;;;;;;;6.63;6.00;;;;;;;13.57;94.27;101521.88;5055417;28;20036;-74
2023/05/24 03:22:40;;;;;;;6.90;6.28;;;;;;;14.07;92.86;101533.31;5056536;28;20392;-74
2023/05/24 03:25:08;;;;;;;6.03;5.53;;;;;;;14.32;91.73;101519.19;5040857;28;20028;-75
2023/05/24 03:27:34;;;;;;;6.65;6.05;;;;;;;14.52;91.11;101530.88;5057279;28;20124;-74
2023/05/24 03:30:00;;;;;;;8.25;7.05;;;;;;;14.87;89.43;101533.41;5040611;28;20056;-74
2023/05/24 03:32:25;;;;;;;7.88;7.10;;;;;;;15.02;87.86;101514.19;5057051;28;20051;-75
2023/05/24 03:34:51;;;;;;;6.80;6.13;;;;;;;15.45;87.19;101532.66;5058305;28;20036;-74
2023/05/24 03:37:17;;;;;;;7.22;5.97;;;;;;;15.86;85.99;101545.03;5040296;28;20028;-75
2023/05/24 03:39:42;;;;;;;7.13;6.43;;;;;;;16.05;84.39;101532.41;5057054;28;20021;-75
2023/05/24 03:42:08;;;;;;;8.13;7.00;;;;;;;16.29;83.69;101541.66;5057878;28;20033;-75
2023/05/24 03:44:33;;;;;;;7.10;6.40;;;;;;;16.65;82.53;101535.53;5057453;28;20488;-75
2023/05/24 03:46:59;;;;;;;6.80;6.20;;;;;;;16.99;80.97;101542.41;5057094;28;20096;-75
2023/05/24 03:49:24;;;;;;;6.72;5.93;;;;;;;17.30;79.71;101541.44;5040511;28;20037;-76
2023/05/24 03:51:50;;;;;;;5.15;4.75;;;;;;;17.38;78.39;101530.28;5058914;28;20060;-76
2023/05/24 03:54:16;;;;;;;6.15;5.32;;;;;;;17.53;77.35;101531.78;5041215;28;20115;-76
2023/05/24 03:56:42;;;;;;;6.00;5.50;;;;;;;17.89;76.65;101530.94;5041200;28;20090;-75
2023/05/24 03:59:08;;;;;;;5.75;5.20;;;;;;;18.23;75.21;101515.78;5048224;28;20471;-75
2023/05/24 04:01:35;;;;;;;5.30;4.80;;;;;;;18.47;73.59;101522.09;5069995;28;20124;-76
2023/05/24 04:04:02;;;;;;;5.20;4.80;;;;;;;19.04;72.98;101537.13;5042826;28;20029;-76
2023/05/24 04:06:28;;;;;;;5.20;4.75;;;;;;;19.41;71.80;101557.63;5042825;28;20075;-76
2023/05/24 04:08:55;;;;;;;4.68;4.28;;;;;;;19.40;70.72;101517.75;5035850;28;20025;-76
2023/05/24 04:11:22;;;;;;;5.07;4.68;;;;;;;19.80;69.58;101549.75;5061203;28;20039;-75
2023/05/24 04:13:51;;;;;;;4.85;4.38;;;;;;;19.79;68.84;101555.44;5045566;28;20025;-72
2023/05/24 04:16:17;;;;;;;4.22;3.92;;;;;;;19.98;68.35;101547.88;5062388;28;20033;-74
2023/05/24 04:18:44;;;;;;;4.85;4.45;;;;;;;19.90;67.84;101555.41;5062586;28;20218;-74
2023/05/24 04:21:10;;;;;;;5.05;4.60;;;;;;;19.58;67.97;101557.72;5044947;28;20044;-76
2023/05/24 04:23:35;;;;;;;4.95;3.95;;;;;;;19.46;67.95;101557.72;5045670;28;20033;-75
2023/05/24 04:26:01;;;;;;;4.40;4.05;;;;;;;19.51;67.91;101562.47;5045030;28;20041;-76
2023/05/24 04:28:26;;;;;;;4.20;3.80;;;;;;;19.66;67.48;101562.81;5045590;28;20037;-76
2023/05/24 04:30:52;;;;;;;4.30;4.00;;;;;;;19.67;67.23;101569.13;5063892;28;20033;-74
2023/05/24 04:33:18;;;;;;;4.80;4.40;;;;;;;19.61;66.70;101564.59;5061895;28;20029;-75
2023/05/24 04:35:44;;;;;;;4.82;4.43;;;;;;;19.75;66.93;101576.94;5060575;28;20088;-77
2023/05/24 04:38:11;;;;;;;4.53;4.13;;;;;;;19.99;66.91;101574.94;5061758;28;20101;-75
2023/05/24 04:40:37;;;;;;;4.40;4.10;;;;;;;20.24;66.30;101579.25;5046086;28;20116;-75
2023/05/24 04:43:05;;;;;;;4.75;4.35;;;;;;;20.34;65.93;101587.66;5061696;28;20079;-75
2023/05/24 04:45:31;;;;;;;4.38;4.05;;;;;;;20.26;66.01;101563.44;5063254;28;20027;-76
2023/05/24 04:47:58;;;;;;;4.40;4.00;;;;;;;20.18;65.67;101584.63;5046105;28;20496;-77
2023/05/24 04:50:24;;;;;;;4.13;3.83;;;;;;;20.12;66.05;101590.22;5045070;28;20199;-76
2023/05/24 04:52:50;;;;;;;4.57;4.18;;;;;;;20.31;66.18;101582.66;5058428;28;20053;-76
2023/05/24 04:55:15;;;;;;;6.60;4.10;;;;;;;20.42;65.52;101579.03;5044360;28;20025;-77
2023/05/24 04:57:41;;;;;;;3.88;3.50;;;;;;;20.52;65.13;101568.31;5063296;28;20483;-77
2023/05/24 05:00:07;;;;;;;4.05;3.45;;;;;;;20.30;66.00;101581.84;5051379;28;20049;-77
2023/05/24 05:02:32;;;;;;;3.80;3.50;;;;;;;20.34;65.65;101539.28;5067324;28;20037;-78
2023/05/24 05:04:58;;;;;;;3.80;3.50;;;;;;;20.44;65.33;101584.28;5061749;28;20035;-77
2023/05/24 05:07:23;;;;;;;4.07;3.78;;;;;;;20.37;65.87;101584.44;5060351;28;20029;-76
2023/05/24 05:09:48;;;;;;;3.80;3.50;;;;;;;20.55;65.87;101580.66;5042255;28;20032;-78
2023/05/24 05:12:14;;;;;;;3.70;3.38;;;;;;;20.50;66.00;101584.13;5044586;28;20033;-78
2023/05/24 05:14:40;;;;;;;3.78;3.47;;;;;;;20.51;66.65;101602.19;5059897;28;20368;-77
2023/05/24 05:17:06;;;;;;;3.90;3.60;;;;;;;20.17;67.22;101607.56;5060682;28;20025;-77
2023/05/24 05:19:31;;;;;;;3.90;3.60;;;;;;;19.95;68.34;101571.06;5064344;28;20105;-76
2023/05/24 05:21:57;;;;;;;3.60;3.30;;;;;;;20.18;68.35;101606.47;5064556;28;20090;-77
2023/05/24 05:24:35;;;;;;;3.60;3.38;;;;;;;20.23;68.83;101610.38;5064852;28;20089;-77
2023/05/24 05:27:01;;;;;;;3.65;3.35;;;;;;;20.33;68.98;101603.22;5062954;28;20119;-78
2023/05/24 05:29:26;;;;;;;3.83;3.53;;;;;;;20.15;69.47;101592.47;5080200;28;20143;-77
2023/05/24 05:31:52;;;;;;;3.42;3.22;;;;;;;19.95;70.67;101599.19;5065803;28;20029;-80
2023/05/24 05:34:18;;;;;;;4.20;3.65;;;;;;;19.64;71.67;101595.00;5066507;28;20036;-80
2023/05/24 05:36:44;;;;;;;4.30;3.90;;;;;;;19.66;72.24;101614.69;5065703;28;20029;-80
2023/05/24 05:39:09;;;;;;;3.88;3.58;;;;;;;19.39;72.62;101594.41;5063798;28;20166;-78
2023/05/24 05:41:39;;;;;;;3.97;3.67;;;;;;;18.98;74.43;101607.09;5078668;28;20040;-78
2023/05/24 05:44:04;;;;;;;4.40;4.00;;;;;;;18.66;76.06;101623.72;5063612;28;20025;-79
2023/05/24 05:46:30;;;;;;;4.03;3.67;;;;;;;18.40;77.06;101619.47;5061880;28;20051;-77
2023/05/24 05:48:55;;;;;;;4.30;4.00;;;;;;;18.28;78.02;101619.44;5061896;28;20020;-78
2023/05/24 05:51:21;;;;;;;4.68;4.28;;;;;;;18.18;79.00;101613.72;5060804;28;20031;-78
2023/05/24 05:53:46;;;;;;;5.30;4.70;;;;;;;18.00;79.96;101608.28;5060437;28;20025;-77
2023/05/24 05:56:12;;;;;;;4.82;4.45;;;;;;;18.01;80.38;101616.25;5043966;28;20029;-79
2023/05/24 05:58:37;;;;;;;5.28;4.78;;;;;;;18.10;80.63;101616.75;5060156;28;20029;-77
2023/05/24 06:01:03;;;;;;;5.53;5.13;;;;;;;18.11;81.23;101614.84;5057843;28;20048;-76
2023/05/24 06:03:29;;;;;;;5.72;5.13;;;;;;;18.17;81.51;101613.94;5060309;28;20116;-76
2023/05/24 06:05:54;;;;;;;6.15;5.47;;;;;;;18.20;81.70;101600.69;5059632;28;20096;-76
2023/05/24 06:08:20;;;;;;;6.30;5.70;;;;;;;18.45;81.46;101603.28;5059643;28;20036;-76
2023/05/24 06:10:45;;;;;;;5.78;5.00;;;;;;;18.74;81.57;101593.44;5076978;28;20086;-76
2023/05/24 06:13:11;;;;;;;6.85;6.25;;;;;;;18.99;81.63;101601.41;5059894;28;20033;-76
2023/05/24 06:15:37;;;;;;;6.90;6.30;;;;;;;19.33;80.71;101607.09;5057037;28;20035;-75
2023/05/24 06:18:02;;;;;;;6.53;5.93;;;;;;;19.34;80.71;101618.88;5059134;28;20400;-76
2023/05/24 06:20:28;;;;;;;6.72;6.03;;;;;;;19.43;81.00;101611.97;5059692;28;20025;-76
2023/05/24 06:22:54;;;;;;;6.90;6.10;;;;;;;19.49;81.06;101614.56;5057875;28;20029;-75
2023/05/24 06:25:21;;;;;;;7.68;6.68;;;;;;;19.52;80.69;101612.44;5058143;28;20033;-75
2023/05/24 06:27:47;;;;;;;9.18;7.40;;;;;;;19.35;80.75;101576.84;5042771;28;20092;-76
2023/05/24 06:30:12;;;;;;;7.65;6.78;;;;;;;19.68;80.92;101620.75;5059365;28;20053;-75
2023/05/24 06:32:38;;;;;;;7.72;7.03;;;;;;;19.80;80.85;101628.09;5066037;28;20059;-76
2023/05/24 06:35:04;;;;;;;7.70;6.90;;;;;;;19.69;80.69;101619.66;5073844;28;20547;-75
2023/05/24 06:37:30;;;;;;;7.82;6.97;;;;;;;19.59;80.71;101627.63;5041123;28;20033;-76
2023/05/24 06:39:55;;;;;;;9.18;7.20;;;;;;;19.64;80.87;101643.31;5043498;28;20421;-76
2023/05/24 06:42:21;;;;;;;7.57;6.88;;;;;;;19.69;80.70;101638.78;5058662;28;20052;-76
2023/05/24 06:44:46;;;;;;;9.68;6.68;;;;;;;19.71;80.57;101642.13;5061154;28;20029;-75
2023/05/24 06:47:12;;;;;;;6.38;5.78;;;;;;;19.78;80.65;101624.78;5060400;28;20032;-75
2023/05/24 06:49:38;;;;;;;6.75;6.00;;;;;;;19.92;80.13;101640.66;5061225;28;20033;-75
2023/05/24 06:52:03;;;;;;;6.95;6.25;;;;;;;19.90;79.63;101647.41;5042867;28;20048;-76
2023/05/24 06:54:29;;;;;;;7.70;5.75;;;;;;;19.81;79.64;101648.88;5060525;28;20029;-75
2023/05/24 06:56:54;;;;;;;6.40;5.53;;;;;;;19.63;79.75;101644.34;5042900;28;20029;-76
2023/05/24 06:59:20;;;;;;;7.65;6.95;;;;;;;19.55;80.82;101647.44;5026491;28;20037;-75
2023/05/24 07:01:46;;;;;;;8.38;7.57;;;;;;;19.52;81.97;101656.94;5058627;28;20056;-76
2023/05/24 07:04:12;;;;;;;9.07;8.27;;;;;;;19.28;84.16;101658.84;5061701;28;20021;-76
2023/05/24 07:06:38;;;;;;;9.85;8.95;;;;;;;19.17;85.66;101665.97;5042055;28;20032;-75
2023/05/24 07:09:03;;;;;;;9.48;8.57;;;;;;;19.06;86.83;101664.03;5056078;28;20025;-76
2023/05/24 07:11:31;;;;;;;9.90;9.00;;;;;;;19.05;86.87;101665.09;5041858;28;20190;-75
2023/05/24 07:13:57;;;;;;;8.73;8.00;;;;;;;18.86;86.82;101641.69;5060030;28;20029;-76
2023/05/24 07:16:22;;;;;;;8.55;7.85;;;;;;;18.91;86.92;101666.38;5061074;28;20036;-76
2023/05/24 07:18:48;;;;;;;8.70;7.90;;;;;;;18.89;87.46;101655.69;5059997;28;20021;-75
2023/05/24 07:21:13;;;;;;;8.32;7.53;;;;;;;18.97;87.63;101673.59;5057711;28;20032;-76
2023/05/24 07:23:39;;;;;;;8.05;7.35;;;;;;;18.70;87.81;101624.91;5041553;28;20245;-76
2023/05/24 07:26:04;;;;;;;9.30;8.40;;;;;;;18.97;88.07;101674.47;5059368;28;20112;-75
2023/05/24 07:28:30;;;;;;;8.48;7.57;;;;;;;18.92;88.57;101670.75;5060688;28;20029;-76
2023/05/24 07:30:55;;;;;;;8.25;7.55;;;;;;;18.96;89.11;101671.94;5060235;28;20016;-75
2023/05/24 07:33:21;;;;;;;8.25;7.55;;;;;;;18.87;89.62;101670.63;5058780;28;20040;-76
2023/05/24 07:35:50;;;;;;;8.55;7.75;;;;;;;18.88;90.37;101669.56;5042838;28;20096;-76
2023/05/24 07:38:17;;;;;;;10.63;9.45;;;;;;;18.80;91.04;101678.06;5058950;28;20100;-75
2023/05/24 07:40:42;;;;;;;9.43;8.60;;;;;;;18.68;91.23;101662.50;5058777;28;20024;-75
2023/05/24 07:43:08;;;;;;;9.82;8.93;;;;;;;18.45;91.97;101633.25;5057359;28;20039;-74
2023/05/24 07:45:34;;;;;;;9.10;7.60;;;;;;;18.78;92.56;101673.69;5061702;28;20028;-75
2023/05/24 07:48:00;;;;;;;9.75;8.75;;;;;;;18.82;92.50;101663.16;5064708;28;20037;-75
2023/05/24 07:50:26;;;;;;;8.75;8.02;;;;;;;18.70;92.18;101634.97;5066013;28;20021;-75
2023/05/24 07:52:52;;;;;;;9.57;8.50;;;;;;;19.02;91.97;101687.38;5065804;28;20051;-75
2023/05/24 07:55:17;;;;;;;8.68;7.82;;;;;;;19.02;91.87;101679.22;5065715;28;20369;-75
2023/05/24 07:57:43;;;;;;;7.90;6.97;;;;;;;19.01;91.55;101666.63;5064760;28;20029;-75
2023/05/24 08:00:13;;;;;;;7.72;6.70;;;;;;;19.05;91.80;101678.75;5069005;28;20071;-75
2023/05/24 08:02:42;;;;;;;8.05;7.25;;;;;;;19.10;91.33;101678.84;5068865;28;20024;-75
2023/05/24 08:05:10;;;;;;;6.93;6.32;;;;;;;19.01;91.36;101674.81;5069544;28;20025;-75
2023/05/24 08:07:36;;;;;;;7.30;5.63;;;;;;;19.17;90.85;101668.69;5088153;28;20131;-75
2023/05/24 08:10:02;;;;;;;6.55;5.90;;;;;;;19.05;90.89;101659.66;5052950;28;20060;-75
2023/05/24 08:12:29;;;;;;;6.60;5.88;;;;;;;19.09;90.61;101655.38;5070184;28;20055;-75
2023/05/24 08:14:55;;;;;;;9.63;6.10;;;;;;;19.22;90.66;101668.78;5069547;28;20564;-75
2023/05/24 08:17:21;;;;;;;5.60;5.10;;;;;;;19.22;90.91;101670.69;5052655;28;20055;-75
2023/05/24 08:19:46;;;;;;;6.00;5.40;;;;;;;19.26;90.88;101674.59;5067951;28;20035;-75
2023/05/24 08:22:12;;;;;;;8.60;7.80;;;;;;;19.12;91.45;101665.81;5068970;28;20020;-75
2023/05/24 08:24:37;;;;;;;7.97;7.18;;;;;;;19.01;91.87;101680.28;5052158;28;20028;-75
2023/05/24 08:27:03;;;;;;;8.40;7.60;;;;;;;18.97;92.23;101673.59;5051245;28;20040;-75
2023/05/24 08:29:29;;;;;;;8.40;7.60;;;;;;;18.95;91.95;101682.03;5087240;28;20031;-74
2023/05/24 08:31:54;;;;;;;8.50;7.60;;;;;;;18.93;91.50;101681.44;5068504;28;20123;-75
2023/05/24 08:34:21;;;;;;;8.60;7.70;;;;;;;18.93;91.64;101691.50;5067424;28;20131;-74
2023/05/24 08:36:47;;;;;;;8.07;7.28;;;;;;;18.86;91.89;101688.06;5048328;28;20092;-75
2023/05/24 08:39:13;;;;;;;8.00;7.25;;;;;;;18.91;92.18;101688.19;5047595;28;20032;-74
2023/05/24 08:41:40;;;;;;;7.65;6.88;;;;;;;18.78;93.63;101692.78;5068434;28;20071;-75
2023/05/24 08:44:06;;;;;;;7.50;5.40;;;;;;;18.63;95.17;101684.16;5051572;28;20402;-75
2023/05/24 08:46:35;;;;;;;5.68;5.07;;;;;;;18.58;96.85;101685.94;5068155;28;20033;-75
2023/05/24 08:49:02;;;;;;;6.57;5.00;;;;;;;18.59;97.22;101688.41;5070406;28;20027;-75
2023/05/24 08:51:29;;;;;;;6.05;4.90;;;;;;;18.54;97.30;101694.56;5077780;28;20027;-75
2023/05/24 08:53:57;;;;;;;5.63;4.63;;;;;;;18.61;97.21;101704.50;5079410;28;20024;-75
2023/05/24 08:56:25;;;;;;;5.20;4.22;;;;;;;18.51;97.58;101716.00;5077573;28;20016;-75
2023/05/24 08:58:54;;;;;;;5.57;4.45;;;;;;;18.60;96.82;101708.31;5090447;28;20031;-75
2023/05/24 09:01:22;;;;;;;7.47;4.55;;;;;;;18.53;95.51;101700.22;5067123;28;20083;-75
2023/05/24 09:03:49;;;;;;;4.78;4.30;;;;;;;18.62;95.09;101709.75;5084342;28;20036;-75
2023/05/24 09:06:17;;;;;;;5.03;4.20;;;;;;;18.61;93.95;101719.00;5065686;28;20115;-75
2023/05/24 09:08:44;;;;;;;4.82;4.22;;;;;;;18.64;94.16;101713.09;5047008;28;20025;-75
2023/05/24 09:11:10;;;;;;;5.10;4.13;;;;;;;18.73;94.10;101717.16;5064766;28;20028;-75
2023/05/24 09:13:36;;;;;;;6.68;4.85;;;;;;;18.98;93.48;101727.13;5065912;28;20085;-75
2023/05/24 09:16:02;;;;;;;5.85;4.38;;;;;;;18.90;93.04;101713.78;5066512;28;20542;-75
2023/05/24 09:18:28;;;;;;;5.90;3.85;;;;;;;19.02;92.18;101725.56;5065730;28;20039;-75
2023/05/24 09:20:54;;;;;;;5.68;3.78;;;;;;;18.86;90.85;101715.31;5047369;28;20039;-78
2023/05/24 09:23:26;;;;;;;4.53;3.60;;;;;;;18.80;90.95;101718.97;5065241;28;20024;-77
2023/05/24 09:25:52;;;;;;;4.60;3.45;;;;;;;18.76;89.96;101726.78;5076506;28;20084;-76
2023/05/24 09:28:19;;;;;;;4.55;3.50;;;;;;;18.89;89.50;101723.88;5075325;28;20048;-76
2023/05/24 09:30:57;;;;;;;4.35;3.95;;;;;;;18.91;88.82;101726.38;5056083;28;20115;-76
2023/05/24 09:33:22;;;;;;;5.20;3.90;;;;;;;18.89;89.34;101725.78;5081097;28;20024;-77
2023/05/24 09:35:48;;;;;;;5.30;3.90;;;;;;;18.87;89.10;101731.44;5047930;28;20037;-74
2023/05/24 09:38:17;;;;;;;4.35;3.50;;;;;;;18.84;89.09;101731.94;5082615;28;20024;-75
2023/05/24 09:40:43;;;;;;;4.13;3.40;;;;;;;18.94;88.97;101737.66;5082530;28;20036;-72
2023/05/24 09:43:09;;;;;;;3.58;3.20;;;;;;;18.93;89.31;101729.69;5081442;28;20044;-74
2023/05/24 09:45:45;;;;;;;7.45;3.75;;;;;;;19.00;88.78;101722.25;5084358;28;20023;-74
2023/05/24 09:48:12;;;;;;;4.50;4.03;;;;;;;19.08;88.61;101730.09;5077334;28;20038;-73
2023/05/24 09:50:38;;;;;;;4.45;3.53;;;;;;;19.20;87.59;101733.69;5066210;28;20055;-74
2023/05/24 09:53:03;;;;;;;3.78;3.47;;;;;;;19.28;86.83;101720.78;5061756;28;20426;-74
2023/05/24 09:55:29;;;;;;;5.72;3.75;;;;;;;19.33;88.21;101734.53;5030072;28;20029;-74
2023/05/24 09:58:03;;;;;;;4.13;3.70;;;;;;;19.26;88.13;101737.38;5079256;28;20032;-74
2023/05/24 10:00:34;;;;;;;4.97;3.10;;;;;;;19.00;87.50;101741.34;5061787;28;20037;-74
2023/05/24 10:03:05;;;;;;;6.65;3.00;;;;;;;18.93;86.46;101746.88;5064778;28;20033;-74
2023/05/24 10:05:32;;;;;;;6.25;3.22;;;;;;;18.91;85.21;101740.03;5084420;28;20032;-74
2023/05/24 10:07:58;;;;;;;3.15;2.80;;;;;;;19.04;83.26;101741.69;5066217;28;20506;-74
2023/05/24 10:10:28;;;;;;;4.97;2.90;;;;;;;19.02;81.34;101741.94;5065241;28;20029;-74
2023/05/24 10:12:55;;;;;;;3.20;2.60;;;;;;;19.11;83.42;101756.91;5063007;28;20020;-74
2023/05/24 10:15:21;;;;;;;3.50;2.70;;;;;;;18.92;86.55;101747.13;5060856;28;20403;-74
2023/05/24 10:17:46;;;;;;;3.08;2.72;;;;;;;18.95;87.05;101742.03;5061388;28;20029;-74
2023/05/24 10:20:12;;;;;;;4.30;2.50;;;;;;;19.20;87.29;101757.41;5063255;28;20376;-74
2023/05/24 10:22:46;;;;;;;3.00;2.42;;;;;;;18.99;85.00;101754.13;5063440;28;20036;-75
2023/05/24 10:25:26;;;;;;;2.92;2.60;;;;;;;19.14;84.69;101758.31;5076998;28;20024;-74
2023/05/24 10:27:56;;;;;;;4.32;2.13;;;;;;;19.01;84.69;101765.66;5030904;28;20036;-74
2023/05/24 10:30:36;;;;;;;2.25;2.05;;;;;;;19.02;84.54;101752.84;5081454;28;20030;-74
2023/05/24 10:33:05;;;;;;;2.75;2.20;;;;;;;18.92;83.54;101749.84;5064659;28;20020;-75
2023/05/24 10:35:32;;;;;;;2.97;2.28;;;;;;;19.01;82.73;101746.56;5067858;28;20020;-75
2023/05/24 10:37:58;;;;;;;3.35;2.20;;;;;;;19.07;82.43;101755.69;5065737;28;20388;-74
2023/05/24 10:40:24;;;;;;;2.90;2.22;;;;;;;19.12;82.08;101747.66;5065275;28;20108;-74
2023/05/24 10:42:51;;;;;;;2.78;2.25;;;;;;;18.70;81.71;101694.97;5062662;28;20492;-74
2023/05/24 10:45:26;;;;;;;4.88;2.30;;;;;;;19.38;80.43;101751.06;5079962;28;20024;-75
2023/05/24 10:47:53;;;;;;;2.40;2.20;;;;;;;19.24;79.45;101755.88;5062497;28;20017;-75
2023/05/24 10:50:20;;;;;;;3.10;2.30;;;;;;;19.22;79.30;101756.09;5062984;28;20039;-74
2023/05/24 10:52:49;;;;;;;2.30;2.10;;;;;;;19.17;79.24;101750.53;5046704;28;20214;-74
2023/05/24 10:55:15;;;;;;;2.28;1.98;;;;;;;19.32;79.53;101757.44;5063067;28;20114;-74
2023/05/24 10:57:40;;;;;;;2.95;2.15;;;;;;;19.36;79.85;101753.16;5062238;28;20032;-74
2023/05/24 11:00:24;;;;;;;2.63;2.38;;;;;;;19.46;79.90;101753.41;5052897;28;20053;-74
2023/05/24 11:02:50;;;;;;;2.60;2.30;;;;;;;19.28;80.03;101742.59;5068929;28;20047;-74
2023/05/24 11:05:17;;;;;;;3.40;2.47;;;;;;;19.48;79.91;101751.31;5083395;28;20027;-74
2023/05/24 11:07:43;;;;;;;3.97;2.85;;;;;;;19.71;80.13;101739.59;5085149;28;20073;-75
2023/05/24 11:10:14;;;;;;;5.15;3.10;;;;;;;19.75;79.55;101743.50;5048990;28;20024;-74
2023/05/24 11:12:40;;;;;;;3.78;2.40;;;;;;;19.95;76.36;101743.16;5048941;28;20087;-75
2023/05/24 11:15:08;;;;;;;4.30;2.22;;;;;;;20.21;74.25;101744.53;5064960;28;20101;-74
2023/05/24 11:18:11;;;;;;;3.17;2.35;;;;;;;20.40;72.15;101739.75;5043832;28;20036;-74
2023/05/24 11:20:37;;;;;;;3.92;2.30;;;;;;;20.22;70.99;101723.50;5068053;28;20028;-75
2023/05/24 11:23:03;;;;;;;3.47;2.22;;;;;;;20.36;69.73;101722.16;5084580;28;20043;-75
2023/05/24 11:25:29;;;;;;;3.75;2.50;;;;;;;20.66;69.40;101719.22;5079957;28;20028;-75